sensor_id;sensor_type;location;lat;lon;timestamp;P1;durP1;ratioP1;P2;durP2;ratioP2
49223;SDS011;35050;51.316;5.994;2023-02-01T00:00:59;11.07;;;5.30;;
49223;SDS011;35050;51.316;5.994;2023-02-01T00:03:24;11.32;;;5.32;;
49223;SDS011;35050;51.316;5.994;2023-02-01T00:05:55;10.18;;;5.35;;
49223;SDS011;35050;51.316;5.994;2023-02-01T00:08:24;17.55;;;6.07;;
49223;SDS011;35050;51.316;5.994;2023-02-01T00:11:00;13.45;;;5.05;;
49223;SDS011;35050;51.316;5.994;2023-02-01T00:13:29;12.70;;;5.30;;
49223;SDS011;35050;51.316;5.994;2023-02-01T00:16:03;12.80;;;5.97;;
49223;SDS011;35050;51.316;5.994;2023-02-01T00:20:55;11.82;;;4.60;;
49223;SDS011;35050;51.316;5.994;2023-02-01T00:23:20;12.02;;;3.97;;
49223;SDS011;35050;51.316;5.994;2023-02-01T00:25:46;13.98;;;4.60;;
49223;SDS011;35050;51.316;5.994;2023-02-01T00:28:12;11.02;;;3.90;;
49223;SDS011;35050;51.316;5.994;2023-02-01T00:30:38;7.47;;;3.75;;
49223;SDS011;35050;51.316;5.994;2023-02-01T00:33:03;12.77;;;3.70;;
49223;SDS011;35050;51.316;5.994;2023-02-01T00:35:29;10.20;;;3.42;;
49223;SDS011;35050;51.316;5.994;2023-02-01T00:37:55;13.00;;;4.22;;
49223;SDS011;35050;51.316;5.994;2023-02-01T00:40:23;12.65;;;3.75;;
49223;SDS011;35050;51.316;5.994;2023-02-01T00:42:49;9.05;;;3.42;;
49223;SDS011;35050;51.316;5.994;2023-02-01T00:45:14;11.10;;;3.25;;
49223;SDS011;35050;51.316;5.994;2023-02-01T00:47:40;11.15;;;3.85;;
49223;SDS011;35050;51.316;5.994;2023-02-01T00:50:06;13.82;;;3.75;;
49223;SDS011;35050;51.316;5.994;2023-02-01T00:52:32;10.20;;;2.95;;
49223;SDS011;35050;51.316;5.994;2023-02-01T00:54:58;13.50;;;3.60;;
49223;SDS011;35050;51.316;5.994;2023-02-01T00:57:24;14.85;;;4.53;;
49223;SDS011;35050;51.316;5.994;2023-02-01T00:59:49;10.32;;;3.53;;
49223;SDS011;35050;51.316;5.994;2023-02-01T01:02:15;14.20;;;4.47;;
49223;SDS011;35050;51.316;5.994;2023-02-01T01:04:41;15.98;;;3.47;;
49223;SDS011;35050;51.316;5.994;2023-02-01T01:07:06;12.38;;;4.07;;
49223;SDS011;35050;51.316;5.994;2023-02-01T01:09:32;13.18;;;3.85;;
49223;SDS011;35050;51.316;5.994;2023-02-01T01:11:58;9.70;;;3.70;;
49223;SDS011;35050;51.316;5.994;2023-02-01T01:14:27;9.98;;;3.13;;
49223;SDS011;35050;51.316;5.994;2023-02-01T01:16:54;10.18;;;2.95;;
49223;SDS011;35050;51.316;5.994;2023-02-01T01:19:19;15.55;;;4.03;;
49223;SDS011;35050;51.316;5.994;2023-02-01T01:21:45;16.30;;;4.40;;
49223;SDS011;35050;51.316;5.994;2023-02-01T01:24:11;12.52;;;3.72;;
49223;SDS011;35050;51.316;5.994;2023-02-01T01:26:36;11.40;;;3.80;;
49223;SDS011;35050;51.316;5.994;2023-02-01T01:29:02;16.30;;;3.83;;
49223;SDS011;35050;51.316;5.994;2023-02-01T01:31:28;10.68;;;3.08;;
49223;SDS011;35050;51.316;5.994;2023-02-01T01:33:55;9.88;;;3.55;;
49223;SDS011;35050;51.316;5.994;2023-02-01T01:36:22;9.75;;;3.78;;
49223;SDS011;35050;51.316;5.994;2023-02-01T01:38:49;12.18;;;3.65;;
49223;SDS011;35050;51.316;5.994;2023-02-01T01:41:16;10.32;;;3.40;;
49223;SDS011;35050;51.316;5.994;2023-02-01T01:46:23;13.63;;;4.68;;
49223;SDS011;35050;51.316;5.994;2023-02-01T01:49:01;12.63;;;3.90;;
49223;SDS011;35050;51.316;5.994;2023-02-01T01:51:40;14.75;;;4.00;;
49223;SDS011;35050;51.316;5.994;2023-02-01T01:54:29;11.90;;;3.38;;
49223;SDS011;35050;51.316;5.994;2023-02-01T01:57:01;13.40;;;4.13;;
49223;SDS011;35050;51.316;5.994;2023-02-01T01:59:33;11.63;;;4.00;;
49223;SDS011;35050;51.316;5.994;2023-02-01T02:02:01;8.82;;;3.08;;
49223;SDS011;35050;51.316;5.994;2023-02-01T02:04:27;8.98;;;3.70;;
49223;SDS011;35050;51.316;5.994;2023-02-01T02:07:00;14.18;;;4.30;;
49223;SDS011;35050;51.316;5.994;2023-02-01T02:09:29;9.52;;;3.00;;
49223;SDS011;35050;51.316;5.994;2023-02-01T02:11:55;17.55;;;4.40;;
49223;SDS011;35050;51.316;5.994;2023-02-01T02:14:21;11.45;;;3.85;;
49223;SDS011;35050;51.316;5.994;2023-02-01T02:19:41;12.30;;;3.95;;
49223;SDS011;35050;51.316;5.994;2023-02-01T02:36:32;14.27;;;4.38;;
49223;SDS011;35050;51.316;5.994;2023-02-01T02:39:06;17.45;;;5.13;;
49223;SDS011;35050;51.316;5.994;2023-02-01T02:42:11;21.20;;;5.97;;
49223;SDS011;35050;51.316;5.994;2023-02-01T02:45:08;13.98;;;4.75;;
49223;SDS011;35050;51.316;5.994;2023-02-01T02:48:46;23.15;;;5.78;;
49223;SDS011;35050;51.316;5.994;2023-02-01T02:51:12;16.17;;;4.60;;
49223;SDS011;35050;51.316;5.994;2023-02-01T02:56:53;16.77;;;6.03;;
49223;SDS011;35050;51.316;5.994;2023-02-01T02:59:40;15.82;;;4.50;;
49223;SDS011;35050;51.316;5.994;2023-02-01T03:02:26;19.67;;;4.95;;
49223;SDS011;35050;51.316;5.994;2023-02-01T03:05:12;16.13;;;4.88;;
49223;SDS011;35050;51.316;5.994;2023-02-01T03:21:55;17.73;;;5.20;;
49223;SDS011;35050;51.316;5.994;2023-02-01T03:24:34;19.38;;;5.53;;
49223;SDS011;35050;51.316;5.994;2023-02-01T03:32:33;15.65;;;4.75;;
49223;SDS011;35050;51.316;5.994;2023-02-01T03:35:40;17.67;;;4.40;;
49223;SDS011;35050;51.316;5.994;2023-02-01T03:38:21;11.73;;;3.88;;
49223;SDS011;35050;51.316;5.994;2023-02-01T03:40:53;14.70;;;4.32;;
49223;SDS011;35050;51.316;5.994;2023-02-01T03:45:54;12.13;;;4.03;;
49223;SDS011;35050;51.316;5.994;2023-02-01T03:48:26;16.58;;;4.78;;
49223;SDS011;35050;51.316;5.994;2023-02-01T03:50:55;12.88;;;4.05;;
49223;SDS011;35050;51.316;5.994;2023-02-01T03:53:24;14.10;;;4.45;;
49223;SDS011;35050;51.316;5.994;2023-02-01T03:55:51;14.23;;;4.20;;
49223;SDS011;35050;51.316;5.994;2023-02-01T03:58:19;20.42;;;4.97;;
49223;SDS011;35050;51.316;5.994;2023-02-01T04:00:56;13.35;;;3.95;;
49223;SDS011;35050;51.316;5.994;2023-02-01T04:03:23;17.15;;;4.03;;
49223;SDS011;35050;51.316;5.994;2023-02-01T04:05:50;16.98;;;4.32;;
49223;SDS011;35050;51.316;5.994;2023-02-01T04:08:16;13.57;;;4.05;;
49223;SDS011;35050;51.316;5.994;2023-02-01T04:10:43;12.23;;;4.03;;
49223;SDS011;35050;51.316;5.994;2023-02-01T04:13:09;16.17;;;5.05;;
49223;SDS011;35050;51.316;5.994;2023-02-01T04:15:34;17.90;;;4.38;;
49223;SDS011;35050;51.316;5.994;2023-02-01T04:18:00;16.48;;;4.25;;
49223;SDS011;35050;51.316;5.994;2023-02-01T04:20:26;16.45;;;4.53;;
49223;SDS011;35050;51.316;5.994;2023-02-01T04:22:52;17.23;;;4.13;;
49223;SDS011;35050;51.316;5.994;2023-02-01T04:25:18;20.35;;;4.72;;
49223;SDS011;35050;51.316;5.994;2023-02-01T04:27:44;23.67;;;5.43;;
49223;SDS011;35050;51.316;5.994;2023-02-01T04:30:10;16.70;;;5.30;;
49223;SDS011;35050;51.316;5.994;2023-02-01T04:32:37;16.35;;;4.80;;
49223;SDS011;35050;51.316;5.994;2023-02-01T04:35:03;17.05;;;4.32;;
49223;SDS011;35050;51.316;5.994;2023-02-01T04:37:29;19.25;;;4.47;;
49223;SDS011;35050;51.316;5.994;2023-02-01T04:39:55;19.17;;;5.22;;
49223;SDS011;35050;51.316;5.994;2023-02-01T04:42:21;15.82;;;4.22;;
49223;SDS011;35050;51.316;5.994;2023-02-01T04:44:46;15.07;;;4.10;;
49223;SDS011;35050;51.316;5.994;2023-02-01T04:47:12;16.75;;;4.07;;
49223;SDS011;35050;51.316;5.994;2023-02-01T04:49:39;11.20;;;4.07;;
49223;SDS011;35050;51.316;5.994;2023-02-01T04:52:05;19.98;;;4.45;;
49223;SDS011;35050;51.316;5.994;2023-02-01T04:54:30;18.35;;;4.57;;
49223;SDS011;35050;51.316;5.994;2023-02-01T04:56:56;20.55;;;5.25;;
49223;SDS011;35050;51.316;5.994;2023-02-01T04:59:22;19.08;;;4.50;;
49223;SDS011;35050;51.316;5.994;2023-02-01T05:01:47;17.67;;;4.43;;
49223;SDS011;35050;51.316;5.994;2023-02-01T05:04:13;19.25;;;4.80;;
49223;SDS011;35050;51.316;5.994;2023-02-01T05:06:39;20.48;;;5.05;;
49223;SDS011;35050;51.316;5.994;2023-02-01T05:09:04;13.30;;;3.60;;
49223;SDS011;35050;51.316;5.994;2023-02-01T05:11:30;16.00;;;4.20;;
49223;SDS011;35050;51.316;5.994;2023-02-01T05:14:14;19.25;;;4.68;;
49223;SDS011;35050;51.316;5.994;2023-02-01T05:16:40;25.50;;;4.70;;
49223;SDS011;35050;51.316;5.994;2023-02-01T05:19:06;15.05;;;4.32;;
49223;SDS011;35050;51.316;5.994;2023-02-01T05:21:31;27.83;;;5.25;;
49223;SDS011;35050;51.316;5.994;2023-02-01T05:23:57;18.17;;;4.22;;
49223;SDS011;35050;51.316;5.994;2023-02-01T05:26:39;20.45;;;4.80;;
49223;SDS011;35050;51.316;5.994;2023-02-01T05:29:05;21.33;;;4.18;;
49223;SDS011;35050;51.316;5.994;2023-02-01T05:31:32;19.52;;;5.10;;
49223;SDS011;35050;51.316;5.994;2023-02-01T05:33:58;18.08;;;4.07;;
49223;SDS011;35050;51.316;5.994;2023-02-01T05:36:24;13.45;;;3.40;;
49223;SDS011;35050;51.316;5.994;2023-02-01T05:38:50;17.63;;;4.05;;
49223;SDS011;35050;51.316;5.994;2023-02-01T05:41:15;18.85;;;4.60;;
49223;SDS011;35050;51.316;5.994;2023-02-01T05:43:41;20.88;;;4.45;;
49223;SDS011;35050;51.316;5.994;2023-02-01T05:46:07;19.85;;;4.00;;
49223;SDS011;35050;51.316;5.994;2023-02-01T05:48:35;14.90;;;3.47;;
49223;SDS011;35050;51.316;5.994;2023-02-01T05:51:01;15.50;;;4.57;;
49223;SDS011;35050;51.316;5.994;2023-02-01T05:53:26;16.10;;;4.30;;
49223;SDS011;35050;51.316;5.994;2023-02-01T05:55:52;18.15;;;3.80;;
49223;SDS011;35050;51.316;5.994;2023-02-01T05:58:18;22.48;;;4.35;;
49223;SDS011;35050;51.316;5.994;2023-02-01T06:00:44;19.63;;;4.72;;
49223;SDS011;35050;51.316;5.994;2023-02-01T06:03:10;14.15;;;3.75;;
49223;SDS011;35050;51.316;5.994;2023-02-01T06:05:36;17.38;;;4.65;;
49223;SDS011;35050;51.316;5.994;2023-02-01T06:08:02;16.98;;;3.30;;
49223;SDS011;35050;51.316;5.994;2023-02-01T06:10:27;17.08;;;3.50;;
49223;SDS011;35050;51.316;5.994;2023-02-01T06:12:53;19.10;;;4.68;;
49223;SDS011;35050;51.316;5.994;2023-02-01T06:15:19;18.80;;;4.03;;
49223;SDS011;35050;51.316;5.994;2023-02-01T06:17:45;16.38;;;3.42;;
49223;SDS011;35050;51.316;5.994;2023-02-01T06:20:11;17.95;;;4.97;;
49223;SDS011;35050;51.316;5.994;2023-02-01T06:22:38;16.52;;;3.28;;
49223;SDS011;35050;51.316;5.994;2023-02-01T06:25:05;18.73;;;3.72;;
49223;SDS011;35050;51.316;5.994;2023-02-01T06:27:32;19.08;;;4.20;;
49223;SDS011;35050;51.316;5.994;2023-02-01T06:29:59;16.80;;;4.05;;
49223;SDS011;35050;51.316;5.994;2023-02-01T06:32:25;18.20;;;4.15;;
49223;SDS011;35050;51.316;5.994;2023-02-01T06:34:50;13.77;;;3.38;;
49223;SDS011;35050;51.316;5.994;2023-02-01T06:37:20;19.20;;;4.60;;
49223;SDS011;35050;51.316;5.994;2023-02-01T06:39:47;19.40;;;3.95;;
49223;SDS011;35050;51.316;5.994;2023-02-01T06:42:14;18.58;;;4.47;;
49223;SDS011;35050;51.316;5.994;2023-02-01T06:44:40;19.42;;;4.68;;
49223;SDS011;35050;51.316;5.994;2023-02-01T06:47:06;21.48;;;5.13;;
49223;SDS011;35050;51.316;5.994;2023-02-01T06:49:31;23.00;;;4.00;;
49223;SDS011;35050;51.316;5.994;2023-02-01T06:51:57;21.08;;;4.70;;
49223;SDS011;35050;51.316;5.994;2023-02-01T06:54:25;19.73;;;3.95;;
49223;SDS011;35050;51.316;5.994;2023-02-01T06:56:51;19.70;;;5.38;;
49223;SDS011;35050;51.316;5.994;2023-02-01T06:59:17;16.98;;;4.60;;
49223;SDS011;35050;51.316;5.994;2023-02-01T07:01:42;23.08;;;5.15;;
49223;SDS011;35050;51.316;5.994;2023-02-01T07:04:09;18.27;;;4.35;;
49223;SDS011;35050;51.316;5.994;2023-02-01T07:06:36;23.75;;;4.70;;
49223;SDS011;35050;51.316;5.994;2023-02-01T07:09:02;16.60;;;4.53;;
49223;SDS011;35050;51.316;5.994;2023-02-01T07:11:28;20.00;;;4.93;;
49223;SDS011;35050;51.316;5.994;2023-02-01T07:13:54;23.77;;;3.80;;
49223;SDS011;35050;51.316;5.994;2023-02-01T07:16:19;19.95;;;4.63;;
49223;SDS011;35050;51.316;5.994;2023-02-01T07:18:46;19.55;;;4.57;;
49223;SDS011;35050;51.316;5.994;2023-02-01T07:21:12;12.55;;;3.75;;
49223;SDS011;35050;51.316;5.994;2023-02-01T07:23:38;21.88;;;4.72;;
49223;SDS011;35050;51.316;5.994;2023-02-01T07:26:05;14.93;;;4.22;;
49223;SDS011;35050;51.316;5.994;2023-02-01T07:28:33;18.83;;;4.20;;
49223;SDS011;35050;51.316;5.994;2023-02-01T07:31:10;17.60;;;4.05;;
49223;SDS011;35050;51.316;5.994;2023-02-01T07:33:40;16.48;;;4.03;;
49223;SDS011;35050;51.316;5.994;2023-02-01T07:36:07;22.73;;;5.25;;
49223;SDS011;35050;51.316;5.994;2023-02-01T07:38:36;17.73;;;4.18;;
49223;SDS011;35050;51.316;5.994;2023-02-01T07:41:03;15.13;;;3.80;;
49223;SDS011;35050;51.316;5.994;2023-02-01T07:43:30;22.15;;;5.60;;
49223;SDS011;35050;51.316;5.994;2023-02-01T07:45:56;24.25;;;5.15;;
49223;SDS011;35050;51.316;5.994;2023-02-01T07:48:22;22.42;;;4.72;;
49223;SDS011;35050;51.316;5.994;2023-02-01T07:50:56;20.38;;;5.22;;
49223;SDS011;35050;51.316;5.994;2023-02-01T07:53:23;18.02;;;4.38;;
49223;SDS011;35050;51.316;5.994;2023-02-01T07:55:48;20.45;;;4.20;;
49223;SDS011;35050;51.316;5.994;2023-02-01T07:58:14;21.13;;;4.68;;
49223;SDS011;35050;51.316;5.994;2023-02-01T08:00:40;24.27;;;4.72;;
49223;SDS011;35050;51.316;5.994;2023-02-01T08:03:24;23.25;;;4.57;;
49223;SDS011;35050;51.316;5.994;2023-02-01T08:05:53;20.58;;;4.53;;
49223;SDS011;35050;51.316;5.994;2023-02-01T08:08:20;17.88;;;4.47;;
49223;SDS011;35050;51.316;5.994;2023-02-01T08:10:46;17.58;;;3.92;;
49223;SDS011;35050;51.316;5.994;2023-02-01T08:13:12;14.63;;;4.50;;
49223;SDS011;35050;51.316;5.994;2023-02-01T08:15:37;21.98;;;4.75;;
49223;SDS011;35050;51.316;5.994;2023-02-01T08:18:03;21.85;;;4.88;;
49223;SDS011;35050;51.316;5.994;2023-02-01T08:20:29;24.98;;;4.35;;
49223;SDS011;35050;51.316;5.994;2023-02-01T08:22:55;14.48;;;4.00;;
49223;SDS011;35050;51.316;5.994;2023-02-01T08:25:21;15.60;;;4.05;;
49223;SDS011;35050;51.316;5.994;2023-02-01T08:27:48;22.63;;;5.10;;
49223;SDS011;35050;51.316;5.994;2023-02-01T08:30:14;17.50;;;4.28;;
49223;SDS011;35050;51.316;5.994;2023-02-01T08:32:40;19.05;;;4.22;;
49223;SDS011;35050;51.316;5.994;2023-02-01T08:35:06;23.00;;;4.97;;
49223;SDS011;35050;51.316;5.994;2023-02-01T08:37:33;18.67;;;4.07;;
49223;SDS011;35050;51.316;5.994;2023-02-01T08:39:58;16.63;;;4.35;;
49223;SDS011;35050;51.316;5.994;2023-02-01T08:42:24;18.25;;;4.05;;
49223;SDS011;35050;51.316;5.994;2023-02-01T08:45:10;16.08;;;4.30;;
49223;SDS011;35050;51.316;5.994;2023-02-01T08:47:36;23.48;;;5.20;;
49223;SDS011;35050;51.316;5.994;2023-02-01T08:50:02;22.63;;;4.85;;
49223;SDS011;35050;51.316;5.994;2023-02-01T08:52:28;15.40;;;3.92;;
49223;SDS011;35050;51.316;5.994;2023-02-01T08:54:54;13.48;;;4.38;;
49223;SDS011;35050;51.316;5.994;2023-02-01T08:57:20;17.77;;;4.30;;
49223;SDS011;35050;51.316;5.994;2023-02-01T08:59:45;20.33;;;4.25;;
49223;SDS011;35050;51.316;5.994;2023-02-01T09:02:14;18.40;;;4.20;;
49223;SDS011;35050;51.316;5.994;2023-02-01T09:04:41;10.57;;;3.20;;
49223;SDS011;35050;51.316;5.994;2023-02-01T09:07:10;25.60;;;4.53;;
49223;SDS011;35050;51.316;5.994;2023-02-01T09:09:38;22.95;;;4.95;;
49223;SDS011;35050;51.316;5.994;2023-02-01T09:12:03;18.35;;;4.43;;
49223;SDS011;35050;51.316;5.994;2023-02-01T09:14:29;19.48;;;4.10;;
49223;SDS011;35050;51.316;5.994;2023-02-01T09:16:55;20.23;;;4.43;;
49223;SDS011;35050;51.316;5.994;2023-02-01T09:19:21;28.73;;;4.68;;
49223;SDS011;35050;51.316;5.994;2023-02-01T09:21:47;16.70;;;3.63;;
49223;SDS011;35050;51.316;5.994;2023-02-01T09:24:13;20.02;;;4.25;;
49223;SDS011;35050;51.316;5.994;2023-02-01T09:26:38;14.23;;;4.18;;
49223;SDS011;35050;51.316;5.994;2023-02-01T09:29:04;21.38;;;4.70;;
49223;SDS011;35050;51.316;5.994;2023-02-01T09:31:37;21.80;;;4.80;;
49223;SDS011;35050;51.316;5.994;2023-02-01T09:34:03;21.58;;;4.55;;
49223;SDS011;35050;51.316;5.994;2023-02-01T09:36:29;22.55;;;4.93;;
49223;SDS011;35050;51.316;5.994;2023-02-01T09:38:55;14.05;;;3.65;;
49223;SDS011;35050;51.316;5.994;2023-02-01T09:44:10;20.00;;;4.50;;
49223;SDS011;35050;51.316;5.994;2023-02-01T09:46:57;30.17;;;4.80;;
49223;SDS011;35050;51.316;5.994;2023-02-01T09:49:31;21.85;;;4.60;;
49223;SDS011;35050;51.316;5.994;2023-02-01T09:52:01;18.65;;;4.55;;
49223;SDS011;35050;51.316;5.994;2023-02-01T09:54:32;19.45;;;4.45;;
49223;SDS011;35050;51.316;5.994;2023-02-01T09:57:13;17.33;;;4.47;;
49223;SDS011;35050;51.316;5.994;2023-02-01T09:59:53;21.90;;;4.75;;
49223;SDS011;35050;51.316;5.994;2023-02-01T10:02:23;16.05;;;4.60;;
49223;SDS011;35050;51.316;5.994;2023-02-01T10:04:53;16.98;;;5.22;;
49223;SDS011;35050;51.316;5.994;2023-02-01T10:07:27;17.70;;;4.35;;
49223;SDS011;35050;51.316;5.994;2023-02-01T10:10:26;15.48;;;4.20;;
49223;SDS011;35050;51.316;5.994;2023-02-01T10:12:58;19.92;;;4.28;;
49223;SDS011;35050;51.316;5.994;2023-02-01T10:15:35;15.88;;;4.28;;
49223;SDS011;35050;51.316;5.994;2023-02-01T10:21:15;20.45;;;4.97;;
49223;SDS011;35050;51.316;5.994;2023-02-01T10:26:37;25.38;;;4.88;;
49223;SDS011;35050;51.316;5.994;2023-02-01T10:29:16;23.23;;;5.25;;
49223;SDS011;35050;51.316;5.994;2023-02-01T10:31:47;16.23;;;4.60;;
49223;SDS011;35050;51.316;5.994;2023-02-01T10:37:23;21.65;;;4.82;;
49223;SDS011;35050;51.316;5.994;2023-02-01T10:39:52;13.98;;;4.38;;
49223;SDS011;35050;51.316;5.994;2023-02-01T10:42:20;18.83;;;4.32;;
49223;SDS011;35050;51.316;5.994;2023-02-01T10:44:49;21.85;;;4.78;;
49223;SDS011;35050;51.316;5.994;2023-02-01T10:47:15;15.75;;;4.05;;
49223;SDS011;35050;51.316;5.994;2023-02-01T10:49:43;18.55;;;4.70;;
49223;SDS011;35050;51.316;5.994;2023-02-01T10:52:39;18.27;;;4.80;;
49223;SDS011;35050;51.316;5.994;2023-02-01T10:55:32;19.90;;;4.18;;
49223;SDS011;35050;51.316;5.994;2023-02-01T10:58:15;14.13;;;3.50;;
49223;SDS011;35050;51.316;5.994;2023-02-01T11:00:46;15.80;;;4.10;;
49223;SDS011;35050;51.316;5.994;2023-02-01T11:07:03;22.95;;;4.55;;
49223;SDS011;35050;51.316;5.994;2023-02-01T11:14:16;16.30;;;3.90;;
49223;SDS011;35050;51.316;5.994;2023-02-01T11:16:47;20.38;;;4.88;;
49223;SDS011;35050;51.316;5.994;2023-02-01T11:19:15;21.35;;;4.22;;
49223;SDS011;35050;51.316;5.994;2023-02-01T11:21:42;16.48;;;3.90;;
49223;SDS011;35050;51.316;5.994;2023-02-01T11:24:19;14.93;;;3.60;;
49223;SDS011;35050;51.316;5.994;2023-02-01T11:27:02;13.55;;;3.60;;
49223;SDS011;35050;51.316;5.994;2023-02-01T11:29:36;16.33;;;3.92;;
49223;SDS011;35050;51.316;5.994;2023-02-01T11:32:05;15.10;;;3.58;;
49223;SDS011;35050;51.316;5.994;2023-02-01T11:34:38;13.05;;;2.92;;
49223;SDS011;35050;51.316;5.994;2023-02-01T11:37:17;15.57;;;3.80;;
49223;SDS011;35050;51.316;5.994;2023-02-01T11:39:43;17.65;;;4.35;;
49223;SDS011;35050;51.316;5.994;2023-02-01T11:42:26;12.60;;;3.35;;
49223;SDS011;35050;51.316;5.994;2023-02-01T11:45:09;12.05;;;4.05;;
49223;SDS011;35050;51.316;5.994;2023-02-01T11:47:59;11.70;;;3.08;;
49223;SDS011;35050;51.316;5.994;2023-02-01T11:53:02;12.45;;;3.83;;
49223;SDS011;35050;51.316;5.994;2023-02-01T11:55:57;10.45;;;3.25;;
49223;SDS011;35050;51.316;5.994;2023-02-01T12:09:48;16.15;;;3.33;;
49223;SDS011;35050;51.316;5.994;2023-02-01T12:12:25;10.73;;;2.85;;
49223;SDS011;35050;51.316;5.994;2023-02-01T12:29:03;11.10;;;2.63;;
49223;SDS011;35050;51.316;5.994;2023-02-01T12:31:52;8.02;;;2.40;;
49223;SDS011;35050;51.316;5.994;2023-02-01T12:45:40;11.70;;;2.47;;
49223;SDS011;35050;51.316;5.994;2023-02-01T12:51:15;13.85;;;2.97;;
49223;SDS011;35050;51.316;5.994;2023-02-01T12:56:11;9.13;;;2.80;;
49223;SDS011;35050;51.316;5.994;2023-02-01T12:59:03;11.48;;;2.80;;
49223;SDS011;35050;51.316;5.994;2023-02-01T13:01:35;9.87;;;2.57;;
49223;SDS011;35050;51.316;5.994;2023-02-01T13:04:12;9.15;;;2.53;;
49223;SDS011;35050;51.316;5.994;2023-02-01T13:09:43;11.18;;;2.75;;
49223;SDS011;35050;51.316;5.994;2023-02-01T13:12:40;11.57;;;2.60;;
49223;SDS011;35050;51.316;5.994;2023-02-01T13:15:17;13.82;;;3.30;;
49223;SDS011;35050;51.316;5.994;2023-02-01T13:18:04;11.88;;;2.80;;
49223;SDS011;35050;51.316;5.994;2023-02-01T13:20:58;12.30;;;2.85;;
49223;SDS011;35050;51.316;5.994;2023-02-01T13:23:27;10.90;;;2.85;;
49223;SDS011;35050;51.316;5.994;2023-02-01T13:25:58;10.75;;;2.78;;
49223;SDS011;35050;51.316;5.994;2023-02-01T13:28:28;9.82;;;2.42;;
49223;SDS011;35050;51.316;5.994;2023-02-01T13:37:17;10.23;;;2.65;;
49223;SDS011;35050;51.316;5.994;2023-02-01T13:40:10;13.68;;;2.83;;
49223;SDS011;35050;51.316;5.994;2023-02-01T13:42:51;8.23;;;2.28;;
49223;SDS011;35050;51.316;5.994;2023-02-01T13:45:22;12.80;;;2.67;;
49223;SDS011;35050;51.316;5.994;2023-02-01T13:47:51;9.60;;;2.58;;
49223;SDS011;35050;51.316;5.994;2023-02-01T13:50:21;12.43;;;2.42;;
49223;SDS011;35050;51.316;5.994;2023-02-01T13:53:03;14.80;;;3.28;;
49223;SDS011;35050;51.316;5.994;2023-02-01T13:55:43;10.13;;;2.05;;
49223;SDS011;35050;51.316;5.994;2023-02-01T13:58:14;10.65;;;2.90;;
49223;SDS011;35050;51.316;5.994;2023-02-01T14:00:48;14.50;;;2.80;;
49223;SDS011;35050;51.316;5.994;2023-02-01T14:03:22;11.13;;;2.95;;
49223;SDS011;35050;51.316;5.994;2023-02-01T14:06:16;21.88;;;3.63;;
49223;SDS011;35050;51.316;5.994;2023-02-01T14:16:41;12.70;;;3.25;;
49223;SDS011;35050;51.316;5.994;2023-02-01T14:19:28;12.38;;;3.28;;
49223;SDS011;35050;51.316;5.994;2023-02-01T14:22:41;14.75;;;2.78;;
49223;SDS011;35050;51.316;5.994;2023-02-01T14:24:49;11.23;;;2.90;;
49223;SDS011;35050;51.316;5.994;2023-02-01T14:27:26;14.27;;;3.08;;
49223;SDS011;35050;51.316;5.994;2023-02-01T14:29:59;10.38;;;3.10;;
49223;SDS011;35050;51.316;5.994;2023-02-01T14:32:37;10.48;;;2.35;;
49223;SDS011;35050;51.316;5.994;2023-02-01T14:35:07;13.55;;;2.90;;
49223;SDS011;35050;51.316;5.994;2023-02-01T14:37:44;12.10;;;3.22;;
49223;SDS011;35050;51.316;5.994;2023-02-01T14:42:52;16.85;;;3.33;;
49223;SDS011;35050;51.316;5.994;2023-02-01T14:47:50;13.13;;;2.88;;
49223;SDS011;35050;51.316;5.994;2023-02-01T14:50:27;15.80;;;3.15;;
49223;SDS011;35050;51.316;5.994;2023-02-01T14:58:34;13.02;;;3.22;;
49223;SDS011;35050;51.316;5.994;2023-02-01T15:09:15;14.57;;;3.35;;
49223;SDS011;35050;51.316;5.994;2023-02-01T15:14:30;16.33;;;3.10;;
49223;SDS011;35050;51.316;5.994;2023-02-01T15:17:00;19.80;;;4.25;;
49223;SDS011;35050;51.316;5.994;2023-02-01T15:19:27;14.30;;;2.90;;
49223;SDS011;35050;51.316;5.994;2023-02-01T15:21:55;13.02;;;3.58;;
49223;SDS011;35050;51.316;5.994;2023-02-01T15:24:23;17.48;;;4.05;;
49223;SDS011;35050;51.316;5.994;2023-02-01T15:26:53;20.25;;;3.67;;
49223;SDS011;35050;51.316;5.994;2023-02-01T15:29:21;14.32;;;3.33;;
49223;SDS011;35050;51.316;5.994;2023-02-01T15:31:52;15.65;;;3.47;;
49223;SDS011;35050;51.316;5.994;2023-02-01T15:34:19;11.00;;;3.10;;
49223;SDS011;35050;51.316;5.994;2023-02-01T15:36:45;15.40;;;3.88;;
49223;SDS011;35050;51.316;5.994;2023-02-01T15:41:48;12.13;;;3.55;;
49223;SDS011;35050;51.316;5.994;2023-02-01T15:44:20;15.25;;;3.10;;
49223;SDS011;35050;51.316;5.994;2023-02-01T15:47:17;13.98;;;4.10;;
49223;SDS011;35050;51.316;5.994;2023-02-01T15:49:50;15.40;;;2.95;;
49223;SDS011;35050;51.316;5.994;2023-02-01T15:54:58;12.35;;;2.92;;
49223;SDS011;35050;51.316;5.994;2023-02-01T15:57:34;14.05;;;2.70;;
49223;SDS011;35050;51.316;5.994;2023-02-01T16:00:17;17.63;;;3.60;;
49223;SDS011;35050;51.316;5.994;2023-02-01T16:08:24;13.88;;;3.53;;
49223;SDS011;35050;51.316;5.994;2023-02-01T16:10:59;15.13;;;3.25;;
49223;SDS011;35050;51.316;5.994;2023-02-01T16:13:27;13.05;;;3.30;;
49223;SDS011;35050;51.316;5.994;2023-02-01T16:15:52;17.08;;;4.32;;
49223;SDS011;35050;51.316;5.994;2023-02-01T16:18:19;14.45;;;3.80;;
49223;SDS011;35050;51.316;5.994;2023-02-01T16:20:44;14.25;;;3.17;;
49223;SDS011;35050;51.316;5.994;2023-02-01T16:23:12;14.23;;;3.55;;
49223;SDS011;35050;51.316;5.994;2023-02-01T16:25:38;9.88;;;3.35;;
49223;SDS011;35050;51.316;5.994;2023-02-01T16:28:04;11.75;;;2.78;;
49223;SDS011;35050;51.316;5.994;2023-02-01T16:30:30;18.52;;;3.58;;
49223;SDS011;35050;51.316;5.994;2023-02-01T16:32:56;15.35;;;3.38;;
49223;SDS011;35050;51.316;5.994;2023-02-01T16:35:25;15.13;;;3.53;;
49223;SDS011;35050;51.316;5.994;2023-02-01T16:38:00;10.85;;;3.38;;
49223;SDS011;35050;51.316;5.994;2023-02-01T16:42:59;12.68;;;3.35;;
49223;SDS011;35050;51.316;5.994;2023-02-01T16:45:25;14.68;;;3.30;;
49223;SDS011;35050;51.316;5.994;2023-02-01T16:47:52;15.25;;;3.65;;
49223;SDS011;35050;51.316;5.994;2023-02-01T16:50:21;12.35;;;2.63;;
49223;SDS011;35050;51.316;5.994;2023-02-01T16:52:49;18.15;;;3.78;;
49223;SDS011;35050;51.316;5.994;2023-02-01T16:55:16;17.70;;;3.40;;
49223;SDS011;35050;51.316;5.994;2023-02-01T16:57:44;15.00;;;3.55;;
49223;SDS011;35050;51.316;5.994;2023-02-01T17:00:10;13.63;;;3.30;;
49223;SDS011;35050;51.316;5.994;2023-02-01T17:02:37;12.10;;;3.53;;
49223;SDS011;35050;51.316;5.994;2023-02-01T17:05:04;13.43;;;3.10;;
49223;SDS011;35050;51.316;5.994;2023-02-01T17:07:30;16.33;;;3.28;;
49223;SDS011;35050;51.316;5.994;2023-02-01T17:09:56;12.50;;;2.88;;
49223;SDS011;35050;51.316;5.994;2023-02-01T17:12:29;10.57;;;2.97;;
49223;SDS011;35050;51.316;5.994;2023-02-01T17:14:57;16.67;;;3.20;;
49223;SDS011;35050;51.316;5.994;2023-02-01T17:17:29;10.88;;;2.85;;
49223;SDS011;35050;51.316;5.994;2023-02-01T17:19:59;12.88;;;3.90;;
49223;SDS011;35050;51.316;5.994;2023-02-01T17:22:25;14.15;;;3.55;;
49223;SDS011;35050;51.316;5.994;2023-02-01T17:24:51;8.07;;;2.50;;
49223;SDS011;35050;51.316;5.994;2023-02-01T17:27:17;13.90;;;3.38;;
49223;SDS011;35050;51.316;5.994;2023-02-01T17:29:42;12.65;;;2.70;;
49223;SDS011;35050;51.316;5.994;2023-02-01T17:32:18;13.82;;;3.03;;
49223;SDS011;35050;51.316;5.994;2023-02-01T17:34:47;14.27;;;3.80;;
49223;SDS011;35050;51.316;5.994;2023-02-01T17:37:26;12.25;;;2.97;;
49223;SDS011;35050;51.316;5.994;2023-02-01T17:39:54;16.05;;;3.30;;